sensor_id;sensor_type;location;lat;lon;timestamp;temperature;humidity
7920;DHT22;18778;47.610;9.776;2023-09-18T00:01:06;16.60;99.90
7920;DHT22;18778;47.610;9.776;2023-09-18T00:03:33;16.70;99.90
7920;DHT22;18778;47.610;9.776;2023-09-18T00:05:59;16.70;99.90
7920;DHT22;18778;47.610;9.776;2023-09-18T00:08:24;16.70;99.90
7920;DHT22;18778;47.610;9.776;2023-09-18T00:10:52;16.80;99.90
7920;DHT22;18778;47.610;9.776;2023-09-18T00:13:18;16.70;99.90
7920;DHT22;18778;47.610;9.776;2023-09-18T00:15:44;16.70;99.90
7920;DHT22;18778;47.610;9.776;2023-09-18T00:18:16;16.70;99.90
7920;DHT22;18778;47.610;9.776;2023-09-18T00:20:42;16.70;99.90
7920;DHT22;18778;47.610;9.776;2023-09-18T00:23:08;16.70;99.90
7920;DHT22;18778;47.610;9.776;2023-09-18T00:25:34;16.60;99.90
7920;DHT22;18778;47.610;9.776;2023-09-18T00:28:00;16.80;99.90
7920;DHT22;18778;47.610;9.776;2023-09-18T00:30:25;16.90;99.90
7920;DHT22;18778;47.610;9.776;2023-09-18T00:35:17;16.90;99.90
7920;DHT22;18778;47.610;9.776;2023-09-18T00:37:43;17.00;99.90
7920;DHT22;18778;47.610;9.776;2023-09-18T00:40:09;17.10;99.90
7920;DHT22;18778;47.610;9.776;2023-09-18T00:42:36;17.20;99.90
7920;DHT22;18778;47.610;9.776;2023-09-18T00:45:02;17.20;99.90
7920;DHT22;18778;47.610;9.776;2023-09-18T00:47:28;17.20;99.90
7920;DHT22;18778;47.610;9.776;2023-09-18T00:49:54;17.20;99.90
7920;DHT22;18778;47.610;9.776;2023-09-18T00:52:22;17.00;99.90
7920;DHT22;18778;47.610;9.776;2023-09-18T00:54:49;16.90;99.90
7920;DHT22;18778;47.610;9.776;2023-09-18T00:57:15;16.80;99.90
7920;DHT22;18778;47.610;9.776;2023-09-18T00:59:41;16.80;99.90
7920;DHT22;18778;47.610;9.776;2023-09-18T01:02:07;16.70;99.90
7920;DHT22;18778;47.610;9.776;2023-09-18T01:04:33;16.70;99.90
7920;DHT22;18778;47.610;9.776;2023-09-18T01:07:03;17.40;99.90
7920;DHT22;18778;47.610;9.776;2023-09-18T01:09:30;16.60;99.90
7920;DHT22;18778;47.610;9.776;2023-09-18T01:12:48;16.60;99.90
7920;DHT22;18778;47.610;9.776;2023-09-18T01:15:26;16.70;99.90
7920;DHT22;18778;47.610;9.776;2023-09-18T01:17:53;16.80;99.90
7920;DHT22;18778;47.610;9.776;2023-09-18T01:20:19;16.80;99.90
7920;DHT22;18778;47.610;9.776;2023-09-18T01:22:44;16.70;99.90
7920;DHT22;18778;47.610;9.776;2023-09-18T01:25:10;16.80;99.90
7920;DHT22;18778;47.610;9.776;2023-09-18T01:27:36;16.90;99.90
7920;DHT22;18778;47.610;9.776;2023-09-18T01:30:02;16.90;99.90
7920;DHT22;18778;47.610;9.776;2023-09-18T01:32:30;16.90;99.90
7920;DHT22;18778;47.610;9.776;2023-09-18T01:34:57;16.80;99.90
7920;DHT22;18778;47.610;9.776;2023-09-18T01:37:27;16.90;99.90
7920;DHT22;18778;47.610;9.776;2023-09-18T01:39:53;16.80;99.90
7920;DHT22;18778;47.610;9.776;2023-09-18T01:42:20;16.70;99.90
7920;DHT22;18778;47.610;9.776;2023-09-18T01:44:47;16.70;99.90
7920;DHT22;18778;47.610;9.776;2023-09-18T01:47:16;16.50;99.90
7920;DHT22;18778;47.610;9.776;2023-09-18T01:49:43;16.50;99.90
7920;DHT22;18778;47.610;9.776;2023-09-18T01:52:09;16.50;99.90
7920;DHT22;18778;47.610;9.776;2023-09-18T01:54:35;16.50;99.90
7920;DHT22;18778;47.610;9.776;2023-09-18T01:57:02;19.90;99.90
7920;DHT22;18778;47.610;9.776;2023-09-18T01:59:28;16.40;99.90
7920;DHT22;18778;47.610;9.776;2023-09-18T02:04:20;16.40;99.90
7920;DHT22;18778;47.610;9.776;2023-09-18T02:06:48;17.90;99.90
7920;DHT22;18778;47.610;9.776;2023-09-18T02:09:14;18.30;99.90
7920;DHT22;18778;47.610;9.776;2023-09-18T02:11:41;16.30;99.90
7920;DHT22;18778;47.610;9.776;2023-09-18T02:14:08;16.30;99.90
7920;DHT22;18778;47.610;9.776;2023-09-18T02:16:36;16.30;99.90
7920;DHT22;18778;47.610;9.776;2023-09-18T02:21:28;16.20;99.90
7920;DHT22;18778;47.610;9.776;2023-09-18T02:23:54;16.10;99.90
7920;DHT22;18778;47.610;9.776;2023-09-18T02:26:24;16.20;99.90
7920;DHT22;18778;47.610;9.776;2023-09-18T02:28:52;16.30;99.90
7920;DHT22;18778;47.610;9.776;2023-09-18T02:31:19;16.20;99.90
7920;DHT22;18778;47.610;9.776;2023-09-18T02:33:44;16.20;99.90
7920;DHT22;18778;47.610;9.776;2023-09-18T02:41:02;16.20;99.90
7920;DHT22;18778;47.610;9.776;2023-09-18T02:53:18;16.30;99.90
7920;DHT22;18778;47.610;9.776;2023-09-18T02:55:44;16.30;99.90
7920;DHT22;18778;47.610;9.776;2023-09-18T03:00:44;16.40;99.90
7920;DHT22;18778;47.610;9.776;2023-09-18T03:03:10;16.40;99.90
7920;DHT22;18778;47.610;9.776;2023-09-18T03:05:36;16.40;99.90
7920;DHT22;18778;47.610;9.776;2023-09-18T03:08:02;16.40;99.90
7920;DHT22;18778;47.610;9.776;2023-09-18T03:10:28;16.40;99.90
7920;DHT22;18778;47.610;9.776;2023-09-18T03:12:53;16.40;99.90
7920;DHT22;18778;47.610;9.776;2023-09-18T03:15:19;16.40;99.90
7920;DHT22;18778;47.610;9.776;2023-09-18T03:17:44;16.30;99.90
7920;DHT22;18778;47.610;9.776;2023-09-18T03:20:11;17.40;99.90
7920;DHT22;18778;47.610;9.776;2023-09-18T03:22:36;16.20;99.90
7920;DHT22;18778;47.610;9.776;2023-09-18T03:25:02;16.20;99.90
7920;DHT22;18778;47.610;9.776;2023-09-18T03:27:28;16.20;99.90
7920;DHT22;18778;47.610;9.776;2023-09-18T03:29:55;17.90;99.90
7920;DHT22;18778;47.610;9.776;2023-09-18T03:32:20;16.20;99.90
7920;DHT22;18778;47.610;9.776;2023-09-18T03:37:12;16.40;99.90
7920;DHT22;18778;47.610;9.776;2023-09-18T03:39:38;18.40;99.90
7920;DHT22;18778;47.610;9.776;2023-09-18T03:46:55;16.40;99.90
7920;DHT22;18778;47.610;9.776;2023-09-18T03:49:21;16.30;99.90
7920;DHT22;18778;47.610;9.776;2023-09-18T03:51:46;16.30;99.90
7920;DHT22;18778;47.610;9.776;2023-09-18T03:54:12;17.20;99.90
7920;DHT22;18778;47.610;9.776;2023-09-18T03:56:37;16.20;99.90
7920;DHT22;18778;47.610;9.776;2023-09-18T03:59:03;16.20;99.90
7920;DHT22;18778;47.610;9.776;2023-09-18T04:01:30;16.20;99.90
7920;DHT22;18778;47.610;9.776;2023-09-18T04:08:50;15.90;99.90
7920;DHT22;18778;47.610;9.776;2023-09-18T04:13:44;15.70;99.90
7920;DHT22;18778;47.610;9.776;2023-09-18T04:18:39;15.60;99.90
7920;DHT22;18778;47.610;9.776;2023-09-18T04:21:04;15.60;99.90
7920;DHT22;18778;47.610;9.776;2023-09-18T04:25:56;15.50;99.90
7920;DHT22;18778;47.610;9.776;2023-09-18T04:28:23;15.50;99.90
7920;DHT22;18778;47.610;9.776;2023-09-18T04:38:08;15.60;99.90
7920;DHT22;18778;47.610;9.776;2023-09-18T04:40:37;15.80;99.90
7920;DHT22;18778;47.610;9.776;2023-09-18T04:43:03;16.40;99.90
7920;DHT22;18778;47.610;9.776;2023-09-18T04:45:31;16.10;99.90
7920;DHT22;18778;47.610;9.776;2023-09-18T04:47:57;16.10;99.90
7920;DHT22;18778;47.610;9.776;2023-09-18T04:50:23;16.10;99.90
7920;DHT22;18778;47.610;9.776;2023-09-18T04:52:48;16.30;99.90
7920;DHT22;18778;47.610;9.776;2023-09-18T04:55:16;16.20;99.90
7920;DHT22;18778;47.610;9.776;2023-09-18T04:57:42;16.30;99.90
7920;DHT22;18778;47.610;9.776;2023-09-18T05:00:08;16.40;99.90
7920;DHT22;18778;47.610;9.776;2023-09-18T05:02:39;16.50;99.90
7920;DHT22;18778;47.610;9.776;2023-09-18T05:05:06;19.20;99.90
7920;DHT22;18778;47.610;9.776;2023-09-18T05:07:34;16.70;99.90
7920;DHT22;18778;47.610;9.776;2023-09-18T05:09:59;16.80;99.90
7920;DHT22;18778;47.610;9.776;2023-09-18T05:12:25;16.80;99.90
7920;DHT22;18778;47.610;9.776;2023-09-18T05:14:51;16.80;99.90
7920;DHT22;18778;47.610;9.776;2023-09-18T05:17:17;16.80;99.90
7920;DHT22;18778;47.610;9.776;2023-09-18T05:19:43;17.20;99.90
7920;DHT22;18778;47.610;9.776;2023-09-18T05:22:09;20.00;99.90
7920;DHT22;18778;47.610;9.776;2023-09-18T05:24:39;17.40;99.90
7920;DHT22;18778;47.610;9.776;2023-09-18T05:27:05;17.00;99.90
7920;DHT22;18778;47.610;9.776;2023-09-18T05:29:34;17.70;99.90
7920;DHT22;18778;47.610;9.776;2023-09-18T05:32:03;18.10;99.90
7920;DHT22;18778;47.610;9.776;2023-09-18T05:39:21;17.10;99.90
7920;DHT22;18778;47.610;9.776;2023-09-18T05:41:46;17.60;99.90
7920;DHT22;18778;47.610;9.776;2023-09-18T05:44:12;17.10;99.90
7920;DHT22;18778;47.610;9.776;2023-09-18T05:46:38;17.20;99.90
7920;DHT22;18778;47.610;9.776;2023-09-18T05:49:03;19.00;99.90
7920;DHT22;18778;47.610;9.776;2023-09-18T05:51:30;17.30;99.90
7920;DHT22;18778;47.610;9.776;2023-09-18T05:56:21;17.60;99.90
7920;DHT22;18778;47.610;9.776;2023-09-18T05:58:49;17.80;99.90
7920;DHT22;18778;47.610;9.776;2023-09-18T06:01:14;17.90;99.90
7920;DHT22;18778;47.610;9.776;2023-09-18T06:03:40;18.10;99.90
7920;DHT22;18778;47.610;9.776;2023-09-18T06:06:06;18.20;99.90
7920;DHT22;18778;47.610;9.776;2023-09-18T06:08:31;18.40;99.90
7920;DHT22;18778;47.610;9.776;2023-09-18T06:10:58;18.50;99.90
7920;DHT22;18778;47.610;9.776;2023-09-18T06:13:27;18.70;99.90
7920;DHT22;18778;47.610;9.776;2023-09-18T06:15:53;18.80;99.90
7920;DHT22;18778;47.610;9.776;2023-09-18T06:18:21;19.00;99.90
7920;DHT22;18778;47.610;9.776;2023-09-18T06:20:47;19.10;99.90
7920;DHT22;18778;47.610;9.776;2023-09-18T06:23:12;19.30;99.90
7920;DHT22;18778;47.610;9.776;2023-09-18T06:25:39;19.40;99.90
7920;DHT22;18778;47.610;9.776;2023-09-18T06:28:05;19.50;99.90
7920;DHT22;18778;47.610;9.776;2023-09-18T06:30:32;19.70;99.90
7920;DHT22;18778;47.610;9.776;2023-09-18T06:32:59;19.90;99.90
7920;DHT22;18778;47.610;9.776;2023-09-18T06:35:25;18.40;99.90
7920;DHT22;18778;47.610;9.776;2023-09-18T06:37:50;20.10;99.90
7920;DHT22;18778;47.610;9.776;2023-09-18T06:40:16;20.10;99.90
7920;DHT22;18778;47.610;9.776;2023-09-18T06:42:42;20.20;99.90
7920;DHT22;18778;47.610;9.776;2023-09-18T06:45:08;20.20;99.90
7920;DHT22;18778;47.610;9.776;2023-09-18T06:47:34;20.20;99.90
7920;DHT22;18778;47.610;9.776;2023-09-18T06:50:00;20.20;99.90
7920;DHT22;18778;47.610;9.776;2023-09-18T06:52:27;20.20;99.90
7920;DHT22;18778;47.610;9.776;2023-09-18T06:54:53;20.20;99.90
7920;DHT22;18778;47.610;9.776;2023-09-18T06:57:19;20.10;99.90
7920;DHT22;18778;47.610;9.776;2023-09-18T06:59:46;20.10;99.90
7920;DHT22;18778;47.610;9.776;2023-09-18T07:02:12;20.10;99.90
7920;DHT22;18778;47.610;9.776;2023-09-18T07:04:40;20.10;99.90
7920;DHT22;18778;47.610;9.776;2023-09-18T07:07:11;20.10;99.90
7920;DHT22;18778;47.610;9.776;2023-09-18T07:09:37;20.00;99.90
7920;DHT22;18778;47.610;9.776;2023-09-18T07:12:04;20.10;99.90
7920;DHT22;18778;47.610;9.776;2023-09-18T07:14:29;20.10;99.90
7920;DHT22;18778;47.610;9.776;2023-09-18T07:16:56;20.20;99.90
7920;DHT22;18778;47.610;9.776;2023-09-18T07:19:21;20.30;99.90
7920;DHT22;18778;47.610;9.776;2023-09-18T07:21:47;20.20;99.90
7920;DHT22;18778;47.610;9.776;2023-09-18T07:24:13;20.20;99.90
7920;DHT22;18778;47.610;9.776;2023-09-18T07:26:46;20.20;99.90
7920;DHT22;18778;47.610;9.776;2023-09-18T07:29:12;20.30;99.90
7920;DHT22;18778;47.610;9.776;2023-09-18T07:31:38;20.30;99.90
7920;DHT22;18778;47.610;9.776;2023-09-18T07:34:05;20.40;99.90
7920;DHT22;18778;47.610;9.776;2023-09-18T07:36:31;20.40;99.90
7920;DHT22;18778;47.610;9.776;2023-09-18T07:38:56;20.50;99.90
7920;DHT22;18778;47.610;9.776;2023-09-18T07:41:23;20.60;99.90
7920;DHT22;18778;47.610;9.776;2023-09-18T07:43:48;20.60;99.90
7920;DHT22;18778;47.610;9.776;2023-09-18T07:46:14;20.70;99.90
7920;DHT22;18778;47.610;9.776;2023-09-18T07:48:40;20.70;99.90
7920;DHT22;18778;47.610;9.776;2023-09-18T07:51:05;20.70;99.90
7920;DHT22;18778;47.610;9.776;2023-09-18T07:53:31;20.80;99.90
7920;DHT22;18778;47.610;9.776;2023-09-18T07:55:57;20.80;99.90
7920;DHT22;18778;47.610;9.776;2023-09-18T07:58:25;20.90;99.90
7920;DHT22;18778;47.610;9.776;2023-09-18T08:00:55;21.00;99.90
7920;DHT22;18778;47.610;9.776;2023-09-18T08:03:23;21.00;99.90
7920;DHT22;18778;47.610;9.776;2023-09-18T08:05:52;21.10;99.90
7920;DHT22;18778;47.610;9.776;2023-09-18T08:08:20;21.00;99.90
7920;DHT22;18778;47.610;9.776;2023-09-18T08:10:50;20.90;99.90
7920;DHT22;18778;47.610;9.776;2023-09-18T08:13:16;20.90;99.90
7920;DHT22;18778;47.610;9.776;2023-09-18T08:15:42;20.80;99.90
7920;DHT22;18778;47.610;9.776;2023-09-18T08:18:09;20.90;99.90
7920;DHT22;18778;47.610;9.776;2023-09-18T08:20:36;20.90;99.90
7920;DHT22;18778;47.610;9.776;2023-09-18T08:23:03;20.90;99.90
7920;DHT22;18778;47.610;9.776;2023-09-18T08:25:31;21.00;99.90
7920;DHT22;18778;47.610;9.776;2023-09-18T08:27:56;20.90;99.90
7920;DHT22;18778;47.610;9.776;2023-09-18T08:30:22;20.90;99.90
7920;DHT22;18778;47.610;9.776;2023-09-18T08:32:48;20.80;99.90
7920;DHT22;18778;47.610;9.776;2023-09-18T08:35:13;20.90;99.90
7920;DHT22;18778;47.610;9.776;2023-09-18T08:37:43;20.90;99.90
7920;DHT22;18778;47.610;9.776;2023-09-18T08:40:13;20.90;99.90
7920;DHT22;18778;47.610;9.776;2023-09-18T08:42:44;20.90;99.90
7920;DHT22;18778;47.610;9.776;2023-09-18T08:45:10;20.90;99.90
7920;DHT22;18778;47.610;9.776;2023-09-18T08:47:39;20.90;99.90
7920;DHT22;18778;47.610;9.776;2023-09-18T08:50:06;20.90;99.90
7920;DHT22;18778;47.610;9.776;2023-09-18T08:52:33;20.80;99.90
7920;DHT22;18778;47.610;9.776;2023-09-18T08:54:59;20.80;99.90
7920;DHT22;18778;47.610;9.776;2023-09-18T08:57:27;20.70;99.90
7920;DHT22;18778;47.610;9.776;2023-09-18T08:59:54;20.70;99.90
7920;DHT22;18778;47.610;9.776;2023-09-18T09:02:20;20.60;99.90
7920;DHT22;18778;47.610;9.776;2023-09-18T09:04:46;20.50;99.90
7920;DHT22;18778;47.610;9.776;2023-09-18T09:07:12;20.30;99.90
7920;DHT22;18778;47.610;9.776;2023-09-18T09:09:37;20.10;99.90
7920;DHT22;18778;47.610;9.776;2023-09-18T09:12:04;20.00;99.90
7920;DHT22;18778;47.610;9.776;2023-09-18T09:14:30;19.80;99.90
7920;DHT22;18778;47.610;9.776;2023-09-18T09:16:56;19.40;99.90
7920;DHT22;18778;47.610;9.776;2023-09-18T09:19:33;19.30;99.90
7920;DHT22;18778;47.610;9.776;2023-09-18T09:22:02;19.20;99.90
7920;DHT22;18778;47.610;9.776;2023-09-18T09:24:40;19.10;99.90
7920;DHT22;18778;47.610;9.776;2023-09-18T09:29:32;18.80;99.90
7920;DHT22;18778;47.610;9.776;2023-09-18T09:32:15;18.70;99.90
7920;DHT22;18778;47.610;9.776;2023-09-18T09:34:42;18.60;99.90
7920;DHT22;18778;47.610;9.776;2023-09-18T09:37:08;18.40;99.90
7920;DHT22;18778;47.610;9.776;2023-09-18T09:39:34;18.30;99.90
7920;DHT22;18778;47.610;9.776;2023-09-18T09:42:03;18.30;99.90
7920;DHT22;18778;47.610;9.776;2023-09-18T09:44:32;18.20;99.90
7920;DHT22;18778;47.610;9.776;2023-09-18T09:46:59;18.20;99.90
7920;DHT22;18778;47.610;9.776;2023-09-18T09:49:25;18.20;99.90
7920;DHT22;18778;47.610;9.776;2023-09-18T09:51:53;18.30;99.90
7920;DHT22;18778;47.610;9.776;2023-09-18T09:54:32;19.70;99.90
7920;DHT22;18778;47.610;9.776;2023-09-18T09:57:06;18.30;99.90
7920;DHT22;18778;47.610;9.776;2023-09-18T10:02:00;18.30;99.90
7920;DHT22;18778;47.610;9.776;2023-09-18T10:04:28;18.30;99.90
7920;DHT22;18778;47.610;9.776;2023-09-18T10:07:05;18.40;99.90
7920;DHT22;18778;47.610;9.776;2023-09-18T10:09:34;18.10;99.90
7920;DHT22;18778;47.610;9.776;2023-09-18T10:12:01;18.10;99.90
7920;DHT22;18778;47.610;9.776;2023-09-18T10:14:31;18.10;99.90
7920;DHT22;18778;47.610;9.776;2023-09-18T10:16:59;18.20;99.90
7920;DHT22;18778;47.610;9.776;2023-09-18T10:19:45;18.40;99.90
7920;DHT22;18778;47.610;9.776;2023-09-18T10:22:27;18.10;99.90
7920;DHT22;18778;47.610;9.776;2023-09-18T10:25:13;18.10;99.90
7920;DHT22;18778;47.610;9.776;2023-09-18T10:27:45;18.20;99.90
7920;DHT22;18778;47.610;9.776;2023-09-18T10:30:12;19.30;99.90
7920;DHT22;18778;47.610;9.776;2023-09-18T10:32:40;18.20;99.90
7920;DHT22;18778;47.610;9.776;2023-09-18T10:35:06;18.70;99.90
7920;DHT22;18778;47.610;9.776;2023-09-18T10:37:34;18.10;99.90
7920;DHT22;18778;47.610;9.776;2023-09-18T10:40:00;18.10;99.90
7920;DHT22;18778;47.610;9.776;2023-09-18T10:42:26;17.80;99.90
7920;DHT22;18778;47.610;9.776;2023-09-18T10:44:52;17.80;99.90
7920;DHT22;18778;47.610;9.776;2023-09-18T10:47:18;18.10;99.90
7920;DHT22;18778;47.610;9.776;2023-09-18T10:49:45;18.00;99.90
7920;DHT22;18778;47.610;9.776;2023-09-18T10:52:12;18.30;99.90
7920;DHT22;18778;47.610;9.776;2023-09-18T10:57:05;18.60;99.90
7920;DHT22;18778;47.610;9.776;2023-09-18T10:59:31;18.70;99.90
7920;DHT22;18778;47.610;9.776;2023-09-18T11:02:03;18.90;99.90
7920;DHT22;18778;47.610;9.776;2023-09-18T11:04:31;18.60;99.90
7920;DHT22;18778;47.610;9.776;2023-09-18T11:09:26;18.40;99.90
7920;DHT22;18778;47.610;9.776;2023-09-18T11:12:14;18.30;99.90
7920;DHT22;18778;47.610;9.776;2023-09-18T11:22:38;17.80;99.90
7920;DHT22;18778;47.610;9.776;2023-09-18T11:28:15;17.90;99.90
7920;DHT22;18778;47.610;9.776;2023-09-18T11:30:58;18.00;99.90
7920;DHT22;18778;47.610;9.776;2023-09-18T11:33:42;18.00;99.90
7920;DHT22;18778;47.610;9.776;2023-09-18T11:36:28;18.30;99.90
7920;DHT22;18778;47.610;9.776;2023-09-18T11:39:00;18.80;99.90
7920;DHT22;18778;47.610;9.776;2023-09-18T11:41:30;19.60;99.90
7920;DHT22;18778;47.610;9.776;2023-09-18T11:46:46;20.00;99.90
7920;DHT22;18778;47.610;9.776;2023-09-18T11:49:13;20.30;99.90
7920;DHT22;18778;47.610;9.776;2023-09-18T11:51:39;20.30;99.90
7920;DHT22;18778;47.610;9.776;2023-09-18T11:54:07;20.80;99.90
7920;DHT22;18778;47.610;9.776;2023-09-18T11:56:35;20.40;99.90
7920;DHT22;18778;47.610;9.776;2023-09-18T12:01:31;19.90;99.90
7920;DHT22;18778;47.610;9.776;2023-09-18T12:08:53;19.90;99.90
7920;DHT22;18778;47.610;9.776;2023-09-18T12:11:21;19.70;99.90
7920;DHT22;18778;47.610;9.776;2023-09-18T12:13:48;19.70;99.90
7920;DHT22;18778;47.610;9.776;2023-09-18T12:23:43;19.30;99.90
7920;DHT22;18778;47.610;9.776;2023-09-18T12:26:14;19.60;99.90
7920;DHT22;18778;47.610;9.776;2023-09-18T12:31:13;19.70;99.90
7920;DHT22;18778;47.610;9.776;2023-09-18T12:33:40;19.50;99.90
7920;DHT22;18778;47.610;9.776;2023-09-18T12:36:07;19.40;99.90
7920;DHT22;18778;47.610;9.776;2023-09-18T12:38:33;19.20;99.90
7920;DHT22;18778;47.610;9.776;2023-09-18T12:41:00;19.20;99.90
7920;DHT22;18778;47.610;9.776;2023-09-18T12:43:49;19.30;99.90
7920;DHT22;18778;47.610;9.776;2023-09-18T12:46:15;19.60;99.90
7920;DHT22;18778;47.610;9.776;2023-09-18T12:48:41;19.70;99.90
7920;DHT22;18778;47.610;9.776;2023-09-18T12:51:11;19.80;99.90
7920;DHT22;18778;47.610;9.776;2023-09-18T12:53:37;19.80;99.90
7920;DHT22;18778;47.610;9.776;2023-09-18T12:56:11;19.90;99.90
7920;DHT22;18778;47.610;9.776;2023-09-18T12:58:41;19.90;99.90
7920;DHT22;18778;47.610;9.776;2023-09-18T13:01:09;19.90;99.90
7920;DHT22;18778;47.610;9.776;2023-09-18T13:03:45;20.00;99.90
7920;DHT22;18778;47.610;9.776;2023-09-18T13:06:15;20.20;99.90
7920;DHT22;18778;47.610;9.776;2023-09-18T13:08:43;20.30;99.90
7920;DHT22;18778;47.610;9.776;2023-09-18T13:11:08;20.30;99.90
7920;DHT22;18778;47.610;9.776;2023-09-18T13:13:36;20.30;99.90
7920;DHT22;18778;47.610;9.776;2023-09-18T13:16:05;20.10;99.90
7920;DHT22;18778;47.610;9.776;2023-09-18T13:18:31;20.10;99.90
7920;DHT22;18778;47.610;9.776;2023-09-18T13:20:57;20.00;99.90
7920;DHT22;18778;47.610;9.776;2023-09-18T13:23:32;20.00;99.90
7920;DHT22;18778;47.610;9.776;2023-09-18T13:26:02;20.20;99.90
7920;DHT22;18778;47.610;9.776;2023-09-18T13:30:56;21.10;99.90
7920;DHT22;18778;47.610;9.776;2023-09-18T13:33:22;21.60;99.90
7920;DHT22;18778;47.610;9.776;2023-09-18T13:35:49;22.00;99.90
7920;DHT22;18778;47.610;9.776;2023-09-18T13:38:14;22.30;99.90
7920;DHT22;18778;47.610;9.776;2023-09-18T13:40:41;22.20;99.90
7920;DHT22;18778;47.610;9.776;2023-09-18T13:43:09;22.00;99.90
7920;DHT22;18778;47.610;9.776;2023-09-18T13:45:35;22.10;99.90
7920;DHT22;18778;47.610;9.776;2023-09-18T13:48:01;22.00;99.90
7920;DHT22;18778;47.610;9.776;2023-09-18T13:50:27;21.80;99.90
7920;DHT22;18778;47.610;9.776;2023-09-18T13:52:53;21.80;99.90
7920;DHT22;18778;47.610;9.776;2023-09-18T13:55:19;21.70;99.90
7920;DHT22;18778;47.610;9.776;2023-09-18T13:57:46;22.00;99.90
7920;DHT22;18778;47.610;9.776;2023-09-18T14:00:12;22.40;99.90
7920;DHT22;18778;47.610;9.776;2023-09-18T14:02:40;22.80;99.90
7920;DHT22;18778;47.610;9.776;2023-09-18T14:05:07;23.00;99.90
7920;DHT22;18778;47.610;9.776;2023-09-18T14:07:33;23.00;99.90
7920;DHT22;18778;47.610;9.776;2023-09-18T14:09:59;22.70;99.90
7920;DHT22;18778;47.610;9.776;2023-09-18T14:12:29;22.30;99.90
7920;DHT22;18778;47.610;9.776;2023-09-18T14:14:55;22.00;99.90
7920;DHT22;18778;47.610;9.776;2023-09-18T14:17:21;21.70;99.90
7920;DHT22;18778;47.610;9.776;2023-09-18T14:19:47;21.40;99.90
7920;DHT22;18778;47.610;9.776;2023-09-18T14:22:13;20.90;99.90
7920;DHT22;18778;47.610;9.776;2023-09-18T14:24:39;20.40;99.90
7920;DHT22;18778;47.610;9.776;2023-09-18T14:27:05;20.00;99.90
7920;DHT22;18778;47.610;9.776;2023-09-18T14:29:32;20.00;99.90
7920;DHT22;18778;47.610;9.776;2023-09-18T14:31:57;20.10;99.90
7920;DHT22;18778;47.610;9.776;2023-09-18T14:34:23;19.90;99.90
7920;DHT22;18778;47.610;9.776;2023-09-18T14:36:49;19.90;99.90
7920;DHT22;18778;47.610;9.776;2023-09-18T14:39:14;19.90;99.90
7920;DHT22;18778;47.610;9.776;2023-09-18T14:41:40;19.80;99.90
7920;DHT22;18778;47.610;9.776;2023-09-18T14:44:07;19.90;99.90
7920;DHT22;18778;47.610;9.776;2023-09-18T14:46:37;19.90;99.90
7920;DHT22;18778;47.610;9.776;2023-09-18T14:49:04;20.00;99.90
7920;DHT22;18778;47.610;9.776;2023-09-18T14:51:30;20.10;99.90
7920;DHT22;18778;47.610;9.776;2023-09-18T14:53:57;20.20;99.90
7920;DHT22;18778;47.610;9.776;2023-09-18T14:56:23;20.20;99.90
7920;DHT22;18778;47.610;9.776;2023-09-18T14:58:49;20.20;99.90
7920;DHT22;18778;47.610;9.776;2023-09-18T15:03:42;20.10;99.90
7920;DHT22;18778;47.610;9.776;2023-09-18T15:06:10;19.80;99.90
7920;DHT22;18778;47.610;9.776;2023-09-18T15:08:36;19.80;99.90
7920;DHT22;18778;47.610;9.776;2023-09-18T15:11:01;19.80;99.90
7920;DHT22;18778;47.610;9.776;2023-09-18T15:13:32;19.80;99.90
7920;DHT22;18778;47.610;9.776;2023-09-18T15:15:58;19.80;99.90
7920;DHT22;18778;47.610;9.776;2023-09-18T15:18:25;20.00;99.90
7920;DHT22;18778;47.610;9.776;2023-09-18T15:20:51;20.00;99.90
7920;DHT22;18778;47.610;9.776;2023-09-18T15:23:21;19.90;99.90
7920;DHT22;18778;47.610;9.776;2023-09-18T15:25:48;19.90;99.90
7920;DHT22;18778;47.610;9.776;2023-09-18T15:28:14;19.90;99.90
7920;DHT22;18778;47.610;9.776;2023-09-18T15:30:39;19.60;99.90
7920;DHT22;18778;47.610;9.776;2023-09-18T15:33:05;19.50;99.90
7920;DHT22;18778;47.610;9.776;2023-09-18T15:35:31;19.50;99.90
7920;DHT22;18778;47.610;9.776;2023-09-18T15:37:57;19.60;99.90
7920;DHT22;18778;47.610;9.776;2023-09-18T15:40:23;19.70;99.90
7920;DHT22;18778;47.610;9.776;2023-09-18T15:42:52;19.80;99.90
7920;DHT22;18778;47.610;9.776;2023-09-18T15:45:17;19.80;99.90
7920;DHT22;18778;47.610;9.776;2023-09-18T15:47:44;18.90;99.90
7920;DHT22;18778;47.610;9.776;2023-09-18T15:50:11;19.50;99.90
7920;DHT22;18778;47.610;9.776;2023-09-18T15:52:37;19.40;99.90
7920;DHT22;18778;47.610;9.776;2023-09-18T15:55:04;19.40;99.90
7920;DHT22;18778;47.610;9.776;2023-09-18T15:57:34;19.40;99.90
7920;DHT22;18778;47.610;9.776;2023-09-18T16:00:03;19.30;99.90
7920;DHT22;18778;47.610;9.776;2023-09-18T16:02:35;19.20;99.90
7920;DHT22;18778;47.610;9.776;2023-09-18T16:05:02;19.00;99.90
7920;DHT22;18778;47.610;9.776;2023-09-18T16:07:35;18.90;99.90
7920;DHT22;18778;47.610;9.776;2023-09-18T16:10:03;18.70;99.90
7920;DHT22;18778;47.610;9.776;2023-09-18T16:12:30;18.60;99.90
7920;DHT22;18778;47.610;9.776;2023-09-18T16:14:56;18.50;99.90
7920;DHT22;18778;47.610;9.776;2023-09-18T16:17:22;18.40;99.90
7920;DHT22;18778;47.610;9.776;2023-09-18T16:19:47;18.40;99.90
7920;DHT22;18778;47.610;9.776;2023-09-18T16:22:13;18.30;99.90
7920;DHT22;18778;47.610;9.776;2023-09-18T16:24:42;18.20;99.90
7920;DHT22;18778;47.610;9.776;2023-09-18T16:27:09;18.00;99.90
7920;DHT22;18778;47.610;9.776;2023-09-18T16:29:40;17.90;99.90
7920;DHT22;18778;47.610;9.776;2023-09-18T16:32:06;17.90;99.90
7920;DHT22;18778;47.610;9.776;2023-09-18T16:34:35;18.70;99.90
7920;DHT22;18778;47.610;9.776;2023-09-18T16:37:03;17.70;99.90
7920;DHT22;18778;47.610;9.776;2023-09-18T16:39:29;17.60;99.90
7920;DHT22;18778;47.610;9.776;2023-09-18T16:41:54;17.50;99.90
7920;DHT22;18778;47.610;9.776;2023-09-18T16:44:20;17.40;99.90
7920;DHT22;18778;47.610;9.776;2023-09-18T16:46:45;17.60;99.90
7920;DHT22;18778;47.610;9.776;2023-09-18T16:49:11;17.50;99.90
7920;DHT22;18778;47.610;9.776;2023-09-18T16:54:06;17.40;99.90
7920;DHT22;18778;47.610;9.776;2023-09-18T16:56:31;17.40;99.90
7920;DHT22;18778;47.610;9.776;2023-09-18T16:58:59;17.30;99.90
7920;DHT22;18778;47.610;9.776;2023-09-18T17:01:24;17.30;99.90
7920;DHT22;18778;47.610;9.776;2023-09-18T17:03:50;17.20;99.90
7920;DHT22;18778;47.610;9.776;2023-09-18T17:06:16;17.20;99.90
7920;DHT22;18778;47.610;9.776;2023-09-18T17:08:43;17.10;99.90
7920;DHT22;18778;47.610;9.776;2023-09-18T17:11:09;17.10;99.90
7920;DHT22;18778;47.610;9.776;2023-09-18T17:13:34;17.10;99.90
7920;DHT22;18778;47.610;9.776;2023-09-18T17:16:00;17.10;99.90
7920;DHT22;18778;47.610;9.776;2023-09-18T17:18:26;17.00;99.90
7920;DHT22;18778;47.610;9.776;2023-09-18T17:20:51;17.10;99.90
7920;DHT22;18778;47.610;9.776;2023-09-18T17:23:17;17.00;99.90
7920;DHT22;18778;47.610;9.776;2023-09-18T17:25:43;17.00;99.90
7920;DHT22;18778;47.610;9.776;2023-09-18T17:28:09;16.90;99.90
7920;DHT22;18778;47.610;9.776;2023-09-18T17:30:36;16.80;99.90
7920;DHT22;18778;47.610;9.776;2023-09-18T17:33:02;16.80;99.90